createdAt,value
2023-04-29T00:02:17.094Z,65.03
2023-04-29T00:04:43.983Z,64.17
2023-04-29T00:07:10.925Z,64.44
2023-04-29T00:09:37.614Z,65.77
2023-04-29T00:12:04.241Z,65.96
2023-04-29T00:14:30.806Z,65.56
2023-04-29T00:16:57.562Z,64.75
2023-04-29T00:19:24.161Z,65.02
2023-04-29T00:21:50.769Z,65.10
2023-04-29T00:24:17.348Z,64.97
2023-04-29T00:26:43.927Z,66.07
2023-04-29T00:29:10.732Z,66.59
2023-04-29T00:31:37.475Z,66.19
2023-04-29T00:34:04.266Z,65.71
2023-04-29T00:36:30.819Z,65.47
2023-04-29T00:38:57.435Z,65.62
2023-04-29T00:41:24.059Z,64.90
2023-04-29T00:43:50.650Z,64.81
2023-04-29T00:46:17.297Z,64.48
2023-04-29T00:48:43.941Z,63.73
2023-04-29T00:51:10.532Z,63.83
2023-04-29T00:53:37.129Z,63.37
2023-04-29T00:56:03.818Z,63.38
2023-04-29T00:58:30.406Z,63.70
2023-04-29T01:00:57.015Z,64.11
2023-04-29T01:03:23.813Z,64.01
2023-04-29T01:05:50.610Z,63.68
2023-04-29T01:08:18.573Z,63.66
2023-04-29T01:10:45.291Z,64.00
2023-04-29T01:13:11.859Z,63.64
2023-04-29T01:15:38.485Z,63.49
2023-04-29T01:18:05.162Z,64.01
2023-04-29T01:20:31.804Z,64.17
2023-04-29T01:22:58.412Z,64.86
2023-04-29T01:25:24.985Z,64.60
2023-04-29T01:27:51.581Z,64.57
2023-04-29T01:30:18.254Z,64.16
2023-04-29T01:32:44.870Z,64.06
2023-04-29T01:35:11.453Z,63.84
2023-04-29T01:37:38.038Z,64.08
2023-04-29T01:40:04.651Z,63.29
2023-04-29T01:42:31.253Z,63.72
2023-04-29T01:44:57.842Z,63.57
2023-04-29T01:47:24.460Z,63.59
2023-04-29T01:49:51.330Z,64.33
2023-04-29T01:52:18.029Z,64.69
2023-04-29T01:54:44.610Z,64.61
2023-04-29T01:57:11.209Z,64.83
2023-04-29T01:59:37.850Z,64.10
2023-04-29T02:02:04.542Z,63.97
2023-04-29T02:04:31.156Z,63.75
2023-04-29T02:06:57.751Z,63.95
2023-04-29T02:09:24.345Z,63.47
2023-04-29T02:11:50.930Z,63.87
2023-04-29T02:14:17.604Z,63.54
2023-04-29T02:16:44.255Z,63.46
2023-04-29T02:19:11.687Z,63.28
2023-04-29T02:21:38.245Z,64.11
2023-04-29T02:24:05.064Z,65.27
2023-04-29T02:26:31.620Z,65.21
2023-04-29T02:28:58.245Z,64.78
2023-04-29T02:31:24.924Z,64.64
2023-04-29T02:33:51.548Z,64.81
2023-04-29T02:36:18.136Z,64.49
2023-04-29T02:38:44.801Z,64.40
2023-04-29T02:41:11.405Z,63.88
2023-04-29T02:43:38.114Z,63.79
2023-04-29T02:46:04.845Z,63.56
2023-04-29T02:48:31.471Z,63.78
2023-04-29T02:50:58.047Z,64.46
2023-04-29T02:53:24.752Z,63.80
2023-04-29T02:55:51.351Z,64.80
2023-04-29T02:58:17.933Z,65.58
2023-04-29T03:00:44.579Z,65.28
2023-04-29T03:03:11.288Z,64.85
2023-04-29T03:05:38.026Z,64.32
2023-04-29T03:08:04.632Z,64.27
2023-04-29T03:10:31.207Z,65.17
2023-04-29T03:12:57.802Z,64.71
2023-04-29T03:15:24.426Z,64.18
2023-04-29T03:17:51.022Z,65.25
2023-04-29T03:20:17.625Z,65.16
2023-04-29T03:22:44.233Z,65.44
2023-04-29T03:25:10.845Z,65.79
2023-04-29T03:27:37.461Z,65.10
2023-04-29T03:30:04.029Z,65.13
2023-04-29T03:32:30.658Z,65.00
2023-04-29T03:34:57.492Z,65.10
2023-04-29T03:37:24.089Z,64.95
2023-04-29T03:39:50.999Z,64.52
2023-04-29T03:42:17.886Z,64.48
2023-04-29T03:44:44.472Z,64.37
2023-04-29T03:47:11.064Z,64.45
2023-04-29T03:49:38.914Z,64.51
2023-04-29T03:52:05.719Z,65.40
2023-04-29T03:54:32.323Z,65.83
2023-04-29T03:56:58.916Z,65.73
2023-04-29T03:59:25.474Z,65.33
2023-04-29T04:01:52.147Z,65.06
2023-04-29T04:04:18.856Z,65.84
2023-04-29T04:06:45.603Z,66.02
2023-04-29T04:09:12.180Z,65.83
2023-04-29T04:11:38.750Z,65.04
2023-04-29T04:14:05.326Z,64.72
2023-04-29T04:16:32.156Z,65.21
2023-04-29T04:18:58.772Z,65.32
2023-04-29T04:21:25.382Z,65.85
2023-04-29T04:23:52.002Z,65.60
2023-04-29T04:26:18.583Z,65.27
2023-04-29T04:28:45.181Z,65.40
2023-04-29T04:31:11.782Z,65.36
2023-04-29T04:33:38.437Z,65.03
2023-04-29T04:36:05.125Z,64.66
2023-04-29T04:38:31.855Z,65.27
2023-04-29T04:40:58.415Z,65.61
2023-04-29T04:43:25.008Z,66.35
2023-04-29T04:45:51.648Z,65.88
2023-04-29T04:48:18.258Z,65.10
2023-04-29T04:50:44.867Z,64.70
2023-04-29T04:53:11.796Z,64.43
2023-04-29T04:55:38.386Z,65.04
2023-04-29T04:58:05.015Z,64.55
2023-04-29T05:00:31.603Z,64.54
2023-04-29T05:02:58.564Z,64.05
2023-04-29T05:05:25.260Z,62.91
2023-04-29T05:07:52.228Z,62.63
2023-04-29T05:10:18.865Z,62.26
2023-04-29T05:12:45.465Z,61.97
2023-04-29T05:15:12.163Z,61.46
2023-04-29T05:17:38.835Z,61.24
2023-04-29T05:20:05.455Z,61.06
2023-04-29T05:22:32.060Z,60.03
2023-04-29T05:24:58.688Z,60.62
2023-04-29T05:27:25.275Z,60.68
2023-04-29T05:29:52.159Z,60.77
2023-04-29T05:32:18.944Z,59.67
2023-04-29T05:34:45.515Z,59.32
2023-04-29T05:37:12.099Z,58.68
2023-04-29T05:39:38.697Z,58.94
2023-04-29T05:42:05.270Z,60.20
2023-04-29T05:44:31.863Z,59.66
2023-04-29T05:46:58.443Z,59.93
2023-04-29T05:49:25.022Z,60.03
2023-04-29T05:51:51.658Z,61.08
2023-04-29T05:54:19.078Z,60.96
2023-04-29T05:56:45.712Z,60.91
2023-04-29T05:59:12.358Z,60.03
2023-04-29T06:01:38.929Z,59.51
2023-04-29T06:04:05.664Z,58.72
2023-04-29T06:06:32.498Z,58.38
2023-04-29T06:08:59.128Z,58.14
2023-04-29T06:11:25.716Z,57.92
2023-04-29T06:13:52.306Z,57.93
2023-04-29T06:16:18.971Z,57.46
2023-04-29T06:18:45.723Z,56.81
2023-04-29T06:21:12.318Z,56.72
2023-04-29T06:23:38.906Z,55.45
2023-04-29T06:26:05.490Z,55.51
2023-04-29T06:28:32.053Z,54.68
2023-04-29T06:30:59.186Z,54.25
2023-04-29T06:33:25.804Z,55.58
2023-04-29T06:35:52.439Z,55.17
2023-04-29T06:38:19.070Z,54.62
2023-04-29T06:40:45.756Z,53.89
2023-04-29T06:43:12.357Z,54.61
2023-04-29T06:45:38.971Z,53.86
2023-04-29T06:48:05.616Z,54.70
2023-04-29T06:50:32.286Z,55.60
2023-04-29T06:52:58.849Z,56.59
2023-04-29T06:55:25.449Z,55.53
2023-04-29T06:57:52.035Z,55.86
2023-04-29T07:00:18.595Z,55.58
2023-04-29T07:02:45.353Z,54.30
2023-04-29T07:05:12.020Z,53.92
2023-04-29T07:07:38.605Z,53.64
2023-04-29T07:10:05.219Z,52.71
2023-04-29T07:12:31.812Z,53.33
2023-04-29T07:14:58.404Z,52.84
2023-04-29T07:17:25.026Z,50.99
2023-04-29T07:19:51.963Z,52.52
2023-04-29T07:22:18.698Z,51.26
2023-04-29T07:24:45.316Z,50.47
2023-04-29T07:27:11.921Z,50.10
2023-04-29T07:29:38.525Z,51.24
2023-04-29T07:32:05.359Z,50.50
2023-04-29T07:34:32.025Z,49.65
2023-04-29T07:36:58.602Z,49.38
2023-04-29T07:39:25.184Z,49.47
2023-04-29T07:41:51.863Z,48.81
2023-04-29T07:44:18.463Z,48.56
2023-04-29T07:46:45.170Z,47.96
2023-04-29T07:49:11.859Z,47.58
2023-04-29T07:51:38.521Z,48.77
2023-04-29T07:54:05.183Z,48.27
2023-04-29T07:56:31.799Z,48.05
2023-04-29T07:58:58.502Z,46.00
2023-04-29T08:01:25.146Z,46.89
2023-04-29T08:03:52.125Z,47.31
2023-04-29T08:06:19.317Z,45.38
2023-04-29T08:08:46.033Z,44.43
2023-04-29T08:11:12.657Z,44.35
2023-04-29T08:13:39.248Z,45.07
2023-04-29T08:16:05.868Z,46.27
2023-04-29T08:18:32.526Z,45.27
2023-04-29T08:20:59.434Z,45.14
2023-04-29T08:23:26.180Z,46.15
2023-04-29T08:25:52.828Z,46.12
2023-04-29T08:28:19.726Z,45.34
2023-04-29T08:30:46.358Z,46.05
2023-04-29T08:33:13.086Z,45.34
2023-04-29T08:35:39.748Z,45.68
2023-04-29T08:38:06.659Z,45.55
2023-04-29T08:40:33.465Z,45.15
2023-04-29T08:43:00.156Z,45.34
2023-04-29T08:45:26.817Z,45.51
2023-04-29T08:47:53.791Z,45.71
2023-04-29T08:50:20.467Z,45.37
2023-04-29T08:52:47.349Z,45.09
2023-04-29T08:55:14.026Z,44.45
2023-04-29T08:57:40.734Z,43.91
2023-04-29T09:00:07.345Z,42.70
2023-04-29T09:02:33.962Z,42.23
2023-04-29T09:05:00.719Z,42.75
2023-04-29T09:07:27.394Z,43.33
2023-04-29T09:09:53.961Z,42.65
2023-04-29T09:12:20.656Z,42.13
2023-04-29T09:14:47.225Z,41.85
2023-04-29T09:17:13.841Z,43.08
2023-04-29T09:19:40.412Z,41.30
2023-04-29T09:22:07.118Z,42.50
2023-04-29T09:24:33.765Z,43.00
2023-04-29T09:27:00.484Z,43.11
2023-04-29T09:29:27.057Z,42.08
2023-04-29T09:31:53.842Z,41.32
2023-04-29T09:34:20.526Z,42.32
2023-04-29T09:36:47.143Z,42.05
2023-04-29T09:39:13.807Z,42.19
2023-04-29T09:41:40.381Z,41.63
2023-04-29T09:44:06.970Z,41.23
2023-04-29T09:46:33.608Z,39.44
2023-04-29T09:49:00.245Z,39.48
2023-04-29T09:51:26.980Z,39.16
2023-04-29T09:53:53.914Z,39.56
2023-04-29T09:56:20.496Z,38.82
2023-04-29T09:58:47.107Z,37.68
2023-04-29T10:01:13.766Z,39.19
2023-04-29T10:03:40.566Z,39.21
2023-04-29T10:06:07.261Z,38.31
2023-04-29T10:08:33.951Z,39.49
2023-04-29T10:11:00.590Z,40.32
2023-04-29T10:13:27.212Z,41.00
2023-04-29T10:15:53.819Z,41.62
2023-04-29T10:18:20.567Z,38.31
2023-04-29T10:20:47.276Z,41.83
2023-04-29T10:23:13.870Z,38.61
2023-04-29T10:25:40.520Z,39.38
2023-04-29T10:28:07.143Z,38.21
2023-04-29T10:30:33.777Z,39.27
2023-04-29T10:33:01.701Z,38.19
2023-04-29T10:35:29.468Z,37.16
2023-04-29T10:37:56.122Z,38.15
2023-04-29T10:40:22.709Z,39.20
2023-04-29T10:42:49.282Z,39.04
2023-04-29T10:45:15.984Z,37.77
2023-04-29T10:47:42.609Z,39.11
2023-04-29T10:50:09.243Z,39.62
2023-04-29T10:52:35.849Z,40.82
2023-04-29T10:55:02.452Z,40.56
2023-04-29T10:57:29.034Z,40.70
2023-04-29T10:59:55.657Z,39.90
2023-04-29T11:02:22.276Z,39.56
2023-04-29T11:04:48.963Z,39.90
2023-04-29T11:07:15.583Z,38.73
2023-04-29T11:09:42.174Z,37.51
2023-04-29T11:12:08.858Z,38.58
2023-04-29T11:14:35.580Z,37.36
2023-04-29T11:17:02.162Z,37.89
2023-04-29T11:19:28.861Z,35.85
2023-04-29T11:21:55.504Z,34.97
2023-04-29T11:24:22.088Z,36.08
2023-04-29T11:26:48.939Z,36.61
2023-04-29T11:29:15.613Z,35.06
2023-04-29T11:31:42.327Z,35.66
2023-04-29T11:34:09.059Z,35.18
2023-04-29T11:36:35.706Z,34.61
2023-04-29T11:39:02.310Z,35.40
2023-04-29T11:41:28.859Z,35.25
2023-04-29T11:43:55.381Z,33.74
2023-04-29T11:46:22.028Z,35.77
2023-04-29T11:48:48.653Z,35.34
2023-04-29T11:51:15.328Z,34.96
2023-04-29T11:53:41.930Z,37.19
2023-04-29T11:56:08.536Z,39.48
2023-04-29T11:58:35.364Z,39.61
2023-04-29T12:01:01.941Z,38.54
2023-04-29T12:03:28.627Z,37.70
2023-04-29T12:05:55.426Z,37.78
2023-04-29T12:08:22.284Z,36.55
2023-04-29T12:10:48.898Z,37.79
2023-04-29T12:13:15.539Z,36.20
2023-04-29T12:15:42.316Z,37.22
2023-04-29T12:18:09.027Z,36.02
2023-04-29T12:20:35.634Z,39.40
2023-04-29T12:23:02.261Z,37.93
2023-04-29T12:25:29.164Z,36.55
2023-04-29T12:27:55.747Z,36.27
2023-04-29T12:30:22.549Z,38.47
2023-04-29T12:32:49.179Z,37.36
2023-04-29T12:35:15.826Z,36.78
2023-04-29T12:37:42.412Z,35.59
2023-04-29T12:40:09.079Z,35.76
2023-04-29T12:42:35.729Z,34.04
2023-04-29T12:45:02.559Z,34.85
2023-04-29T12:47:29.220Z,35.00
2023-04-29T12:49:55.877Z,34.23
2023-04-29T12:52:22.786Z,33.41
2023-04-29T12:54:49.390Z,32.33
2023-04-29T12:57:16.007Z,35.09
2023-04-29T12:59:42.617Z,32.90
2023-04-29T13:02:09.374Z,33.36
2023-04-29T13:04:36.302Z,33.50
2023-04-29T13:07:07.350Z,31.69
2023-04-29T13:09:34.011Z,32.83
2023-04-29T13:12:00.618Z,33.28
2023-04-29T13:14:27.189Z,32.49
2023-04-29T13:16:53.892Z,33.54
2023-04-29T13:19:38.433Z,33.49
2023-04-29T13:22:07.146Z,33.80
2023-04-29T13:24:33.791Z,33.46
2023-04-29T13:27:00.374Z,33.83
2023-04-29T13:29:27.009Z,32.78
2023-04-29T13:31:53.612Z,33.85
2023-04-29T13:34:20.226Z,34.04
2023-04-29T13:36:46.807Z,34.05
2023-04-29T13:39:14.896Z,35.04
2023-04-29T13:41:45.525Z,35.72
2023-04-29T13:44:23.915Z,35.25
2023-04-29T13:46:57.523Z,36.66
2023-04-29T13:49:55.960Z,37.31
2023-04-29T13:54:59.476Z,38.78
2023-04-29T13:58:16.550Z,39.64
2023-04-29T14:00:31.570Z,39.35
2023-04-29T14:05:27.565Z,38.71
2023-04-29T14:07:54.218Z,38.17
2023-04-29T14:10:20.815Z,38.71
2023-04-29T14:12:47.384Z,38.62
2023-04-29T14:15:13.978Z,37.74
2023-04-29T14:17:40.748Z,38.65
2023-04-29T14:20:07.559Z,38.29
2023-04-29T14:22:34.198Z,37.87
2023-04-29T14:25:00.758Z,38.52
2023-04-29T14:27:27.379Z,38.92
2023-04-29T14:29:53.949Z,39.38
2023-04-29T14:32:20.640Z,39.25
2023-04-29T14:34:47.306Z,40.68
2023-04-29T14:37:13.941Z,42.93
2023-04-29T14:39:40.580Z,43.66
2023-04-29T14:42:07.149Z,43.32
2023-04-29T14:44:33.727Z,43.85
2023-04-29T14:47:00.350Z,43.12
2023-04-29T14:49:27.768Z,43.70
2023-04-29T14:51:55.920Z,42.93
2023-04-29T14:54:22.497Z,42.61
2023-04-29T14:56:49.072Z,41.86
2023-04-29T14:59:15.673Z,41.16
2023-04-29T15:01:42.304Z,40.21
2023-04-29T15:04:08.925Z,39.69
2023-04-29T15:06:35.560Z,39.46
2023-04-29T15:09:02.173Z,39.40
2023-04-29T15:11:28.807Z,39.26
2023-04-29T15:13:55.392Z,38.85
2023-04-29T15:16:22.081Z,36.60
2023-04-29T15:18:48.682Z,36.83
2023-04-29T15:21:15.272Z,35.70
2023-04-29T15:23:41.932Z,34.77
2023-04-29T15:26:08.516Z,34.81
2023-04-29T15:28:35.101Z,34.82
2023-04-29T15:31:01.672Z,34.67
2023-04-29T15:33:28.311Z,32.84
2023-04-29T15:35:54.979Z,33.15
2023-04-29T15:38:21.773Z,33.19
2023-04-29T15:40:48.357Z,33.17
2023-04-29T15:43:15.220Z,32.84
2023-04-29T15:45:41.820Z,33.43
2023-04-29T15:48:08.545Z,33.30
2023-04-29T15:50:35.199Z,33.39
2023-04-29T15:53:01.809Z,31.95
2023-04-29T15:55:28.913Z,32.53
2023-04-29T15:57:55.538Z,33.21
2023-04-29T16:00:22.142Z,32.88
2023-04-29T16:02:48.811Z,33.38
2023-04-29T16:05:15.478Z,33.29
2023-04-29T16:07:42.050Z,32.97
2023-04-29T16:10:08.691Z,33.55
2023-04-29T16:12:35.301Z,34.24
2023-04-29T16:15:01.911Z,33.86
2023-04-29T16:17:28.544Z,34.73
2023-04-29T16:19:55.375Z,34.52
2023-04-29T16:22:22.175Z,35.08
2023-04-29T16:24:49.925Z,34.97
2023-04-29T16:27:16.649Z,35.51
2023-04-29T16:29:43.261Z,36.01
2023-04-29T16:32:09.877Z,35.67
2023-04-29T16:34:36.431Z,35.30
2023-04-29T16:37:03.016Z,35.08
2023-04-29T16:39:29.663Z,35.54
2023-04-29T16:41:56.590Z,35.67
2023-04-29T16:44:23.215Z,35.80
2023-04-29T16:46:49.927Z,36.62
2023-04-29T16:49:16.502Z,36.52
2023-04-29T16:51:43.092Z,36.43
2023-04-29T16:54:09.688Z,37.42
2023-04-29T16:56:36.622Z,37.07
2023-04-29T16:59:03.384Z,37.03
2023-04-29T17:01:30.040Z,37.53
2023-04-29T17:03:56.640Z,37.00
2023-04-29T17:06:23.468Z,37.51
2023-04-29T17:08:51.444Z,37.84
2023-04-29T17:11:18.289Z,37.41
2023-04-29T17:13:44.927Z,36.92
2023-04-29T17:16:11.564Z,37.73
2023-04-29T17:18:38.556Z,37.66
2023-04-29T17:21:05.115Z,37.06
2023-04-29T17:23:31.719Z,37.27
2023-04-29T17:25:58.362Z,37.52
2023-04-29T17:28:24.947Z,37.80
2023-04-29T17:30:51.546Z,37.67
2023-04-29T17:33:18.161Z,37.44
2023-04-29T17:35:44.759Z,37.61
2023-04-29T17:38:11.523Z,37.40
2023-04-29T17:40:38.124Z,37.88
2023-04-29T17:43:04.703Z,38.19
2023-04-29T17:45:31.326Z,38.19
2023-04-29T17:47:58.205Z,38.34
2023-04-29T17:50:24.971Z,38.55
2023-04-29T17:52:51.626Z,38.57
2023-04-29T17:55:18.244Z,39.72
2023-04-29T17:57:44.815Z,38.52
2023-04-29T18:00:11.478Z,37.77
2023-04-29T18:02:38.129Z,38.40
2023-04-29T18:05:04.763Z,38.57
2023-04-29T18:07:31.463Z,37.89
2023-04-29T18:09:58.359Z,39.16
2023-04-29T18:12:25.246Z,39.29
2023-04-29T18:14:52.124Z,38.40
2023-04-29T18:17:18.739Z,39.97
2023-04-29T18:19:45.318Z,39.56
2023-04-29T18:22:11.912Z,39.46
2023-04-29T18:24:38.480Z,40.38
2023-04-29T18:27:05.115Z,40.56
2023-04-29T18:29:31.678Z,40.91
2023-04-29T18:31:58.418Z,41.11
2023-04-29T18:34:25.081Z,41.86
2023-04-29T18:36:51.672Z,41.79
2023-04-29T18:39:18.261Z,41.97
2023-04-29T18:41:44.827Z,42.52
2023-04-29T18:44:11.413Z,42.78
2023-04-29T18:46:38.030Z,43.35
2023-04-29T18:49:04.636Z,42.82
2023-04-29T18:51:31.244Z,43.45
2023-04-29T18:53:57.826Z,44.08
2023-04-29T18:56:24.440Z,44.90
2023-04-29T18:58:51.005Z,44.66
2023-04-29T19:01:17.632Z,44.95
2023-04-29T19:03:44.295Z,46.37
2023-04-29T19:06:10.958Z,46.87
2023-04-29T19:08:37.590Z,46.70
2023-04-29T19:11:04.167Z,46.56
2023-04-29T19:13:30.756Z,47.31
2023-04-29T19:15:57.343Z,47.72
2023-04-29T19:18:24.020Z,47.85
2023-04-29T19:20:50.615Z,47.49
2023-04-29T19:23:17.185Z,47.74
2023-04-29T19:25:43.793Z,47.61
2023-04-29T19:28:10.522Z,47.92
2023-04-29T19:30:37.214Z,48.15
2023-04-29T19:33:03.828Z,48.49
2023-04-29T19:35:30.455Z,48.58
2023-04-29T19:37:57.073Z,48.17
2023-04-29T19:40:23.665Z,48.14
2023-04-29T19:42:50.249Z,48.31
2023-04-29T19:45:16.845Z,48.67
2023-04-29T19:47:43.484Z,48.81
2023-04-29T19:50:10.324Z,48.34
2023-04-29T19:52:37.181Z,47.96
2023-04-29T19:55:03.795Z,48.51
2023-04-29T19:57:30.376Z,48.10
2023-04-29T19:59:57.292Z,48.30
2023-04-29T20:02:24.145Z,47.86
2023-04-29T20:04:50.804Z,47.65
2023-04-29T20:07:17.714Z,47.34
2023-04-29T20:09:44.392Z,47.93
2023-04-29T20:12:10.984Z,48.38
2023-04-29T20:14:37.557Z,48.17
2023-04-29T20:17:04.446Z,51.67
2023-04-29T20:19:31.019Z,50.73
2023-04-29T20:21:57.610Z,50.10
2023-04-29T20:24:24.361Z,50.05
2023-04-29T20:26:50.964Z,50.19
2023-04-29T20:29:17.557Z,50.14
2023-04-29T20:31:44.208Z,49.90
2023-04-29T20:34:10.846Z,51.12
2023-04-29T20:36:38.492Z,50.61
2023-04-29T20:39:05.058Z,49.91
2023-04-29T20:41:31.669Z,50.12
2023-04-29T20:43:58.252Z,50.39
2023-04-29T20:46:26.123Z,50.34
2023-04-29T20:48:52.841Z,50.43
2023-04-29T20:51:19.468Z,52.85
2023-04-29T20:53:46.566Z,52.59
2023-04-29T20:56:13.162Z,53.98
2023-04-29T20:58:39.779Z,53.61
2023-04-29T21:01:06.409Z,52.72
2023-04-29T21:03:33.093Z,52.64
2023-04-29T21:05:59.687Z,52.96
2023-04-29T21:08:26.308Z,52.59
2023-04-29T21:10:52.885Z,52.99
2023-04-29T21:13:19.605Z,53.64
2023-04-29T21:15:46.259Z,53.23
2023-04-29T21:18:12.890Z,52.70
2023-04-29T21:20:39.498Z,52.67
2023-04-29T21:23:06.237Z,52.90
2023-04-29T21:25:32.796Z,53.69
2023-04-29T21:27:59.411Z,52.88
2023-04-29T21:30:26.005Z,52.91
2023-04-29T21:32:52.674Z,53.39
2023-04-29T21:35:19.293Z,54.44
2023-04-29T21:37:45.893Z,56.23
2023-04-29T21:40:12.526Z,55.39
2023-04-29T21:42:39.291Z,55.66
2023-04-29T21:45:05.896Z,55.40
2023-04-29T21:47:32.591Z,54.71
2023-04-29T21:49:59.189Z,54.46
2023-04-29T21:52:25.773Z,54.49
2023-04-29T21:54:52.510Z,55.37
2023-04-29T21:57:23.987Z,55.00
2023-04-29T21:59:55.974Z,55.21
2023-04-29T22:02:22.784Z,54.77
2023-04-29T22:04:49.480Z,55.23
2023-04-29T22:07:16.082Z,56.48
2023-04-29T22:09:42.666Z,56.55
2023-04-29T22:12:10.526Z,57.11
2023-04-29T22:14:37.146Z,56.78
2023-04-29T22:17:03.764Z,58.05
2023-04-29T22:19:30.354Z,57.52
2023-04-29T22:21:56.983Z,56.69
2023-04-29T22:24:23.579Z,57.18
2023-04-29T22:26:50.290Z,58.36
2023-04-29T22:29:16.885Z,59.29
2023-04-29T22:31:43.502Z,59.28
2023-04-29T22:34:10.116Z,60.49
2023-04-29T22:36:36.671Z,60.53
2023-04-29T22:39:03.285Z,59.96
2023-04-29T22:41:29.901Z,59.78
2023-04-29T22:43:56.475Z,59.20
2023-04-29T22:46:23.127Z,59.73
2023-04-29T22:48:49.713Z,59.53
2023-04-29T22:51:16.377Z,59.17
2023-04-29T22:53:42.978Z,58.48
2023-04-29T22:56:09.554Z,58.30
2023-04-29T22:58:36.218Z,59.51
2023-04-29T23:01:02.839Z,59.19
2023-04-29T23:03:29.652Z,58.50
2023-04-29T23:05:56.273Z,58.22
2023-04-29T23:08:22.903Z,58.33
2023-04-29T23:10:49.561Z,58.43
2023-04-29T23:13:16.263Z,58.81
2023-04-29T23:15:42.846Z,58.63
2023-04-29T23:18:09.570Z,58.63
2023-04-29T23:20:36.271Z,58.74
2023-04-29T23:23:02.827Z,59.23
2023-04-29T23:25:29.443Z,59.58
2023-04-29T23:27:56.092Z,60.32
2023-04-29T23:30:22.691Z,60.09
2023-04-29T23:32:49.328Z,60.03
2023-04-29T23:35:15.974Z,59.29
2023-04-29T23:37:42.611Z,58.76
2023-04-29T23:40:09.241Z,59.28
2023-04-29T23:42:35.876Z,59.95
2023-04-29T23:45:02.464Z,59.74
2023-04-29T23:47:29.100Z,60.08
2023-04-29T23:49:55.890Z,59.10
2023-04-29T23:52:22.818Z,59.84
2023-04-29T23:54:49.432Z,59.86
2023-04-29T23:57:16.020Z,60.02
2023-04-29T23:59:42.618Z,59.46
